Flight Track Log - Related Links

Times and Time Zones

All times are in EDT time to prevent confusion due to time zone crossing. See the N6746T flight status page for this flight to view local times or setup timezone preferences in your user account.

Time Position Orientation Groundspeed Altitude Reporting Facility
EDT Latitude Longitude Course Direction KTS MPH feet Rate Location/Type
Thu 12:48:32 PM 34.0918 -117.7961 272° West 101 116 1,400  Level FlightAware ADS-B
Thu 12:48:55 PM 34.0877 -117.8079 229° Southwest 104 120 1,900 1,071 Climbing FlightAware ADS-B
Thu 12:49:28 PM 34.0793 -117.8209 235° Southwest 108 124 2,400 923 Climbing FlightAware ADS-B (KEMT)
Thu 12:49:34 PM 34.0778 -117.8234 236° Southwest 107 123 2,500 769 Climbing FlightAware ADS-B (KEMT)
Thu 12:50:07 PM 34.0678 -117.8412 237° Southwest 113 130 2,900 511 Climbing FlightAware ADS-B (KEMT)
Thu 12:50:21 PM 34.0631 -117.8483 232° Southwest 122 140 2,900 300 Level FlightAware ADS-B (KEMT)
Thu 12:50:27 PM 34.0611 -117.8510 225° Southwest 130 150 3,000 545 Climbing FlightAware ADS-B (KEMT)
Thu 12:50:32 PM 34.0587 -117.8533 211° Southwest 128 147 3,000 600 Level FlightAware ADS-B (KEMT)
Thu 12:50:37 PM 34.0551 -117.8553 199° South 126 145 3,100 923 Climbing FlightAware ADS-B (KEMT)
Thu 12:50:45 PM 34.0513 -117.8559 181° South 124 143 3,200 545 Climbing FlightAware ADS-B
Thu 12:50:48 PM 34.0494 -117.8557 173° South 123 142 3,200  Level FlightAware ADS-B (KEMT)
Thu 12:50:51 PM 34.0491 -117.8557 169° South 124 143 3,200 706 Level FlightAware ADS-B (KEMT)
Thu 12:51:05 PM 34.0401 -117.8526 163° South 123 142 3,400 828 Climbing FlightAware ADS-B
Thu 12:51:20 PM 34.0318 -117.8498 163° South 121 139 3,600 1,125 Climbing FlightAware ADS-B
Thu 12:51:21 PM 34.0286 -117.8487 163° South 119 137 3,700 632 Climbing FlightAware ADS-B
Thu 12:51:39 PM 34.0212 -117.8466 172° South 123 142 3,800 600 Climbing FlightAware ADS-B
Thu 12:51:41 PM 34.0175 -117.8460 171° South 124 143 3,900 400 Climbing FlightAware ADS-B
Thu 12:51:54 PM 34.0128 -117.8446 162° South 120 138 3,900 214 Level FlightAware ADS-B
Thu 12:52:09 PM 34.0042 -117.8421 165° South 131 151 4,000 171 Climbing FlightAware ADS-B
Thu 12:52:29 PM 33.9919 -117.8379 161° South 138 159 4,000 -171 Level FlightAware ADS-B
Thu 12:52:44 PM 33.9826 -117.8340 161° South 147 169 3,900 -286 Descending FlightAware ADS-B
Thu 12:52:50 PM 33.9795 -117.8328 162° South 148 170 3,900 857 Level FlightAware ADS-B
Thu 12:52:51 PM 33.9752 -117.8312 164° South 149 171 4,000 316 Climbing FlightAware ADS-B
Thu 12:53:09 PM 33.9659 -117.8286 168° South 149 171 4,000  Level FlightAware ADS-B
Thu 12:53:20 PM 33.9589 -117.8276 181° South 152 175 4,000  Level FlightAware ADS-B
Thu 12:53:24 PM 33.9569 -117.8278 189° South 154 177 4,000  Level FlightAware ADS-B
Thu 12:53:29 PM 33.9548 -117.8283 194° South 157 181 4,000  Level FlightAware ADS-B
Thu 12:53:34 PM 33.9487 -117.8311 209° Southwest 157 181 4,000  Level FlightAware ADS-B
Thu 12:53:37 PM 33.9476 -117.8318 214° Southwest 158 182 4,000  Level FlightAware ADS-B
Thu 12:53:39 PM 33.9459 -117.8334 218° Southwest 159 183 4,000  Level FlightAware ADS-B
Thu 12:53:44 PM 33.9435 -117.8357 222° Southwest 160 184 4,000  Level FlightAware ADS-B
Thu 12:53:45 PM 33.9451 -117.8342 222° Southwest 160 184 4,000  Level FlightAware ADS-B (KCRQ)
Thu 12:53:55 PM 33.9373 -117.8427 224° Southwest 158 182 4,000  Level FlightAware ADS-B
Thu 12:54:04 PM 33.9354 -117.8449 224° Southwest 161 185 4,000  Level FlightAware ADS-B
Thu 12:54:14 PM 33.9271 -117.8543 222° Southwest 159 183 4,000  Level FlightAware ADS-B
Thu 12:54:19 PM 33.9239 -117.8575 219° Southwest 158 182 4,000  Level FlightAware ADS-B
Thu 12:54:30 PM 33.9179 -117.8625 212° Southwest 158 182 4,000  Level FlightAware ADS-B
Thu 12:54:39 PM 33.9119 -117.8663 205° Southwest 159 183 4,000  Level FlightAware ADS-B
Thu 12:54:45 PM 33.9098 -117.8674 207° Southwest 159 183 4,000  Level FlightAware ADS-B (KCRQ)
Thu 12:54:49 PM 33.9050 -117.8708 215° Southwest 160 184 4,000  Level FlightAware ADS-B
Thu 12:54:50 PM 33.9047 -117.8711 216° Southwest 161 185 4,000  Level FlightAware ADS-B
Thu 12:54:54 PM 33.9019 -117.8736 220° Southwest 161 185 4,000  Level FlightAware ADS-B
Thu 12:54:59 PM 33.8997 -117.8760 225° Southwest 162 186 4,000  Level FlightAware ADS-B
Thu 12:55:00 PM 33.8989 -117.8770 225° Southwest 162 186 4,000  Level FlightAware ADS-B
Thu 12:55:04 PM 33.8974 -117.8790 230° Southwest 163 188 4,000  Level FlightAware ADS-B
Thu 12:55:10 PM 33.8945 -117.8835 236° Southwest 164 189 4,000  Level FlightAware ADS-B
Thu 12:55:12 PM 33.8932 -117.8857 164° South 139 160 4,000  Level FlightAware ADS-B (KEMT)
Thu 12:55:18 PM 33.8912 -117.8895 238° Southwest 163 188 4,000  Level FlightAware ADS-B (KEMT)
Thu 12:55:24 PM 33.8882 -117.8951 238° Southwest 163 188 4,000  Level FlightAware ADS-B
Thu 12:55:30 PM 33.8859 -117.8993 236° Southwest 164 189 4,000  Level FlightAware ADS-B
Thu 12:55:33 PM 33.8843 -117.9021 235° Southwest 164 189 4,000  Level FlightAware ADS-B
Thu 12:55:39 PM 33.8818 -117.9064 236° Southwest 163 188 4,000  Level FlightAware ADS-B
Thu 12:55:50 PM 33.8773 -117.9144 237° Southwest 163 188 4,000  Level FlightAware ADS-B
Thu 12:55:55 PM 33.8754 -117.9182 240° Southwest 163 188 4,000  Level FlightAware ADS-B
Thu 12:56:00 PM 33.8740 -117.9211 241° Southwest 164 189 4,000  Level FlightAware ADS-B (KCRQ)
Thu 12:56:10 PM 33.8697 -117.9301 235° Southwest 163 188 4,000  Level FlightAware ADS-B
Thu 12:56:15 PM 33.8675 -117.9332 230° Southwest 163 188 4,000  Level FlightAware ADS-B
Thu 12:56:24 PM 33.8627 -117.9403 233° Southwest 162 186 4,000  Level FlightAware ADS-B
Thu 12:56:30 PM 33.8604 -117.9441 236° Southwest 165 190 4,000  Level FlightAware ADS-B
Thu 12:56:39 PM 33.8567 -117.9502 232° Southwest 165 190 4,000  Level FlightAware ADS-B
Thu 12:56:44 PM 33.8534 -117.9549 229° Southwest 163 188 4,000  Level FlightAware ADS-B
Thu 12:56:54 PM 33.8484 -117.9620 230° Southwest 162 186 4,000  Level FlightAware ADS-B
Thu 12:57:00 PM 33.8476 -117.9631 229° Southwest 163 188 4,000  Level FlightAware ADS-B (KCRQ)
Thu 12:57:05 PM 33.8433 -117.9687 227° Southwest 164 189 4,000  Level FlightAware ADS-B
Thu 12:57:15 PM 33.8384 -117.9753 231° Southwest 164 189 4,000 -300 Level FlightAware ADS-B
Thu 12:57:25 PM 33.8335 -117.9825 230° Southwest 164 189 3,900  Descending FlightAware ADS-B
Thu 12:57:30 PM 33.8310 -117.9861 231° Southwest 163 188 4,000 667 Climbing FlightAware ADS-B (KCRQ)
Thu 12:57:34 PM 33.8289 -117.9892 231° Southwest 164 189 4,000 -667 Level FlightAware ADS-B
Thu 12:57:39 PM 33.8261 -117.9932 231° Southwest 165 190 3,900 -545 Descending FlightAware ADS-B
Thu 12:57:45 PM 33.8238 -117.9966 232° Southwest 165 190 3,900  Level FlightAware ADS-B (KCRQ)
Thu 12:57:49 PM 33.8231 -117.9977 232° Southwest 165 190 3,900  Level FlightAware ADS-B
Thu 12:58:00 PM 33.8170 -118.0072 233° Southwest 161 185 3,900  Level FlightAware ADS-B
Thu 12:58:01 PM 33.8194 -118.0035 233° Southwest 163 188 3,900  Level FlightAware ADS-B (KCRQ)
Thu 12:58:04 PM 33.8149 -118.0103 231° Southwest 162 186 3,900  Level FlightAware ADS-B
Thu 12:58:15 PM 33.8094 -118.0178 228° Southwest 161 185 3,900  Level FlightAware ADS-B
Thu 12:58:20 PM 33.8070 -118.0210 228° Southwest 162 186 3,900  Level FlightAware ADS-B
Thu 12:58:31 PM 33.8021 -118.0278 230° Southwest 162 186 3,900  Level FlightAware ADS-B (KCRQ)
Thu 12:58:33 PM 33.8008 -118.0296 230° Southwest 161 185 3,900  Level FlightAware ADS-B
Thu 12:58:54 PM 33.7899 -118.0451 231° Southwest 164 189 3,900  Level FlightAware ADS-B
Thu 12:58:55 PM 33.7904 -118.0443 231° Southwest 164 189 3,900  Level FlightAware ADS-B
Thu 12:59:09 PM 33.7832 -118.0555 235° Southwest 149 171 3,900  Level FlightAware ADS-B
Thu 12:59:10 PM 33.7834 -118.0551 236° Southwest 148 170 3,900  Level FlightAware ADS-B
Thu 12:59:20 PM 33.7795 -118.0618 233° Southwest 145 167 3,900  Level FlightAware ADS-B
Thu 12:59:25 PM 33.7770 -118.0657 233° Southwest 143 165 3,900  Level FlightAware ADS-B
Thu 12:59:30 PM 33.7756 -118.0679 232° Southwest 140 161 3,900  Level FlightAware ADS-B
Thu 12:59:31 PM 33.7751 -118.0685 232° Southwest 140 161 3,900 -429 Level FlightAware ADS-B (KCRQ)
Thu 12:59:44 PM 33.7693 -118.0767 227° Southwest 138 159 3,800 -429 Descending FlightAware ADS-B
Thu 12:59:45 PM 33.7688 -118.0772 228° Southwest 138 159 3,800  Level FlightAware ADS-B
Thu 12:59:46 PM 33.7687 -118.0776 227° Southwest 139 160 3,800  Level FlightAware ADS-B (KCRQ)
Thu 12:59:59 PM 33.7639 -118.0841 233° Southwest 131 151 3,800 429 Level FlightAware ADS-B
Thu 01:00:00 PM 33.7629 -118.0856 233° Southwest 130 150 3,900  Climbing FlightAware ADS-B
Thu 01:00:09 PM 33.7593 -118.0915 234° Southwest 129 148 3,800  Descending FlightAware ADS-B
Thu 01:00:19 PM 33.7557 -118.0973 234° Southwest 129 148 3,900  Climbing FlightAware ADS-B
Thu 01:00:25 PM 33.7534 -118.1004 230° Southwest 125 144 3,800 -429 Descending FlightAware ADS-B
Thu 01:00:33 PM 33.7508 -118.1043 232° Southwest 127 146 3,800 286 Level FlightAware ADS-B
Thu 01:00:46 PM 33.7467 -118.1106 234° Southwest 123 142 3,900 353 Climbing FlightAware ADS-B (KCRQ)
Thu 01:00:50 PM 33.7451 -118.1135 237° Southwest 124 143 3,900  Level FlightAware ADS-B
Thu 01:01:01 PM 33.7418 -118.1198 237° Southwest 124 143 3,900  Level FlightAware ADS-B (KCRQ)
Thu 01:01:04 PM 33.7403 -118.1224 237° Southwest 124 143 3,900 -462 Level FlightAware ADS-B
Thu 01:01:14 PM 33.7370 -118.1279 233° Southwest 137 158 3,800 -667 Descending FlightAware ADS-B
Thu 01:01:22 PM 33.7338 -118.1329 233° Southwest 144 166 3,700 -545 Descending FlightAware ADS-B (KEMT)
Thu 01:01:25 PM 33.7355 -118.1304 231° Southwest 146 168 3,700  Level FlightAware ADS-B
Thu 01:01:37 PM 33.7297 -118.1392 231° Southwest 144 166 3,700 -353 Level FlightAware ADS-B (KEMT)
Thu 01:01:42 PM 33.7252 -118.1457 232° Southwest 145 167 3,600  Descending FlightAware ADS-B
Thu 01:01:50 PM 33.7300 -118.1387 232° Southwest 151 174 3,700 -632 Climbing FlightAware ADS-B
Thu 01:02:01 PM 33.7179 -118.1570 235° Southwest 157 181 3,400 -1,600 Descending FlightAware ADS-B (KCRQ)
Thu 01:02:05 PM 33.7158 -118.1613 241° Southwest 157 181 3,300 -462 Descending FlightAware ADS-B
Thu 01:02:14 PM 33.7129 -118.1680 245° Southwest 156 180 3,300  Level FlightAware ADS-B
Thu 01:02:16 PM 33.7123 -118.1694 246° West 156 180 3,300 -1,200 Level FlightAware ADS-B (KCRQ)
Thu 01:02:19 PM 33.7114 -118.1723 248° West 156 180 3,200 -857 Descending FlightAware ADS-B
Thu 01:02:23 PM 33.7108 -118.1744 255° West 156 180 3,200  Level FlightAware ADS-B
Thu 01:02:28 PM 33.7097 -118.1792 259° West 158 182 3,200 -545 Level FlightAware ADS-B
Thu 01:02:34 PM 33.7093 -118.1854 268° West 161 185 3,100 -1,091 Descending FlightAware ADS-B
Thu 01:02:39 PM 33.7095 -118.1900 274° West 161 185 3,000 -500 Descending FlightAware ADS-B
Thu 01:02:46 PM 33.7097 -118.1937 277° West 161 185 3,000 -400 Level FlightAware ADS-B (KCRQ)
Thu 01:02:54 PM 33.7110 -118.2027 282° West 158 182 2,900 -400 Descending FlightAware ADS-B
Thu 01:03:01 PM 33.7117 -118.2071 281° West 156 180 2,900 -375 Level FlightAware ADS-B (KCRQ)
Thu 01:03:10 PM 33.7141 -118.2161 294° West 155 178 2,800 -462 Descending FlightAware ADS-B
Thu 01:03:14 PM 33.7153 -118.2191 297° West 155 178 2,800 -353 Level FlightAware ADS-B (KEMT)
Thu 01:03:27 PM 33.7196 -118.2269 311° West 139 160 2,700 -480 Descending FlightAware ADS-B (KEMT)
Thu 01:03:39 PM 33.7261 -118.2340 325° Northwest 123 142 2,600 -857 Descending FlightAware ADS-B
Thu 01:03:55 PM 33.7328 -118.2390 327° Northwest 112 129 2,300 -909 Descending FlightAware ADS-B
Thu 01:04:12 PM 33.7401 -118.2452 324° Northwest 112 129 2,100 -571 Descending FlightAware ADS-B (KEMT)
Thu 01:04:16 PM 33.7412 -118.2462 322° Northwest 110 127 2,100  Level FlightAware ADS-B (KCRQ)
Thu 01:04:20 PM 33.7433 -118.2485 318° Northwest 108 124 2,100 -667 Level FlightAware ADS-B
Thu 01:04:25 PM 33.7401 -118.2452 307° West 108 124 2,000 -545 Descending FlightAware ADS-B (KEMT)
Thu 01:04:31 PM 33.7463 -118.2531 309° West 109 125 2,000 -353 Level FlightAware ADS-B (KCRQ)
Thu 01:04:42 PM 33.7500 -118.2586 308° West 107 123 1,900 -800 Descending FlightAware ADS-B (KEMT)
Thu 01:05:01 PM 33.7558 -118.2670 314° West 108 124 1,600 -1,091 Descending FlightAware ADS-B (KCRQ)
Thu 01:05:04 PM 33.7562 -118.2675 316° Northwest 106 122 1,500 -923 Descending FlightAware ADS-B
Thu 01:05:14 PM 33.7595 -118.2723 306° West 101 116 1,400 -500 Descending FlightAware ADS-B
Thu 01:05:16 PM 33.7598 -118.2727 306° West 102 117 1,400 -353 Level FlightAware ADS-B (KCRQ)
Thu 01:05:31 PM 33.7641 -118.2794 302° West 103 119 1,300 -316 Descending FlightAware ADS-B (KCRQ)
Thu 01:05:35 PM 33.7656 -118.2822 307° West 105 121 1,300 -462 Level FlightAware ADS-B
Thu 01:05:44 PM 33.7688 -118.2867 311° West 102 117 1,200 -316 Descending FlightAware ADS-B
Thu 01:05:54 PM 33.7720 -118.2913 312° West 102 117 1,200 -400 Level FlightAware ADS-B
Thu 01:05:59 PM 33.7733 -118.2932 308° West 105 121 1,100 -1,091 Descending FlightAware ADS-B
Thu 01:06:05 PM 33.7747 -118.2955 303° West 105 121 1,000 -800 Descending FlightAware ADS-B
Thu 01:06:14 PM 33.7777 -118.3005 315° West 103 119 900 -632 Descending FlightAware ADS-B
Thu 01:06:24 PM 33.7806 -118.3043 308° West 97 112 800 -400 Descending FlightAware ADS-B
Thu 01:06:29 PM 33.7822 -118.3066 310° West 95 109 800 -400 Level FlightAware ADS-B
Thu 01:06:39 PM 33.7841 -118.3095 308° West 96 110 700 -900 Descending FlightAware ADS-B
Thu 01:06:49 PM 33.7877 -118.3150 310° West 90 104 500 -800 Descending FlightAware ADS-B
Thu 01:06:54 PM 33.7891 -118.3169 312° West 90 104 500 -600 Level FlightAware ADS-B
Thu 01:06:59 PM 33.7905 -118.3188 317° Northwest 92 106 400 -1,200 Descending FlightAware ADS-B
Thu 01:07:04 PM 33.7919 -118.3207 305° West 89 102 300 -300 Descending FlightAware ADS-B
Thu 01:07:19 PM 33.7950 -118.3260 311° West 72 83 300 -353 Level FlightAware ADS-B
Thu 01:07:38 PM 33.7988 -118.3318 307° West 70 81 100 -632 Descending FlightAware ADS-B

Login

Don't have an account? Register now (free) for customized features, flight alerts, and more!